createdAt,value
2023-01-02T00:00:48.445Z,5.38
2023-01-02T00:03:17.521Z,5.00
2023-01-02T00:05:45.128Z,8.38
2023-01-02T00:08:12.711Z,6.38
2023-01-02T00:10:40.308Z,6.80
2023-01-02T00:13:07.861Z,10.25
2023-01-02T00:15:35.411Z,9.45
2023-01-02T00:18:02.962Z,10.43
2023-01-02T00:20:32.379Z,7.63
2023-01-02T00:22:59.897Z,8.35
2023-01-02T00:25:27.859Z,9.50
2023-01-02T00:27:56.143Z,7.15
2023-01-02T00:30:24.021Z,5.68
2023-01-02T00:32:51.551Z,8.52
2023-01-02T00:35:19.383Z,6.90
2023-01-02T00:37:48.244Z,6.80
2023-01-02T00:40:15.972Z,8.98
2023-01-02T00:42:43.944Z,5.47
2023-01-02T00:45:12.241Z,7.43
2023-01-02T00:47:40.280Z,9.00
2023-01-02T00:50:08.374Z,5.72
2023-01-02T00:52:36.159Z,4.25
2023-01-02T00:55:05.848Z,7.28
2023-01-02T00:57:33.449Z,8.52
2023-01-02T01:00:01.032Z,6.47
2023-01-02T01:02:28.674Z,5.32
2023-01-02T01:04:56.333Z,4.25
2023-01-02T01:07:23.927Z,11.25
2023-01-02T01:09:51.635Z,5.32
2023-01-02T01:12:20.554Z,6.90
2023-01-02T01:14:48.138Z,4.40
2023-01-02T01:17:15.722Z,6.70
2023-01-02T01:19:43.235Z,7.45
2023-01-02T01:22:12.817Z,9.80
2023-01-02T01:24:40.379Z,5.30
2023-01-02T01:27:07.953Z,8.30
2023-01-02T01:29:36.844Z,9.10
2023-01-02T01:32:04.774Z,8.02
2023-01-02T01:34:32.351Z,8.05
2023-01-02T01:36:59.943Z,8.32
2023-01-02T01:39:27.628Z,5.63
2023-01-02T01:41:55.194Z,6.72
2023-01-02T01:44:46.094Z,5.40
2023-01-02T01:47:22.280Z,4.50
2023-01-02T01:49:59.889Z,5.95
2023-01-02T01:52:33.429Z,6.22
2023-01-02T01:55:07.817Z,4.68
2023-01-02T01:57:40.411Z,8.13
2023-01-02T02:00:10.864Z,7.78
2023-01-02T02:02:41.075Z,3.97
2023-01-02T02:05:11.701Z,5.32
2023-01-02T02:07:43.996Z,7.45
2023-01-02T02:10:12.823Z,7.85
2023-01-02T02:12:40.427Z,6.72
2023-01-02T02:15:14.531Z,7.15
2023-01-02T02:17:54.024Z,6.35
2023-01-02T02:20:31.974Z,6.78
2023-01-02T02:23:29.075Z,8.30
2023-01-02T02:26:17.751Z,7.55
2023-01-02T02:29:15.164Z,5.47
2023-01-02T02:31:51.967Z,5.35
2023-01-02T02:34:26.299Z,7.18
2023-01-02T02:37:00.466Z,5.72
2023-01-02T02:39:40.479Z,5.65
2023-01-02T02:42:16.535Z,5.43
2023-01-02T02:44:55.996Z,5.25
2023-01-02T02:47:31.686Z,6.72
2023-01-02T02:50:06.511Z,6.75
2023-01-02T02:52:37.957Z,8.02
2023-01-02T02:55:11.113Z,5.32
2023-01-02T02:57:40.488Z,7.38
2023-01-02T03:00:11.071Z,5.22
2023-01-02T03:02:40.265Z,6.72
2023-01-02T03:05:11.503Z,8.15
2023-01-02T03:07:45.994Z,6.43
2023-01-02T03:10:22.755Z,9.13
2023-01-02T03:12:54.460Z,5.85
2023-01-02T03:15:28.880Z,6.22
2023-01-02T03:18:08.745Z,6.22
2023-01-02T03:20:39.693Z,8.70
2023-01-02T03:23:12.196Z,5.82
2023-01-02T03:25:44.117Z,6.70
2023-01-02T03:28:15.113Z,5.78
2023-01-02T03:30:44.247Z,5.20
2023-01-02T03:33:17.429Z,6.88
2023-01-02T03:35:49.256Z,6.22
2023-01-02T03:38:23.303Z,7.32
2023-01-02T03:40:57.226Z,5.88
2023-01-02T03:43:29.550Z,7.13
2023-01-02T03:46:04.755Z,10.85
2023-01-02T03:48:38.357Z,7.82
2023-01-02T03:51:06.758Z,4.63
2023-01-02T03:53:37.366Z,6.55
2023-01-02T03:56:16.861Z,6.88
2023-01-02T03:58:50.580Z,7.53
2023-01-02T04:01:26.608Z,6.03
2023-01-02T04:04:01.278Z,8.20
2023-01-02T04:06:36.092Z,9.57
2023-01-02T04:09:08.945Z,8.07
2023-01-02T04:11:40.395Z,7.88
2023-01-02T04:14:14.636Z,7.72
2023-01-02T04:16:43.924Z,6.45
2023-01-02T04:19:16.376Z,8.07
2023-01-02T04:21:46.520Z,5.82
2023-01-02T04:24:19.642Z,11.27
2023-01-02T04:26:50.869Z,8.65
2023-01-02T04:29:18.757Z,9.38
2023-01-02T04:31:51.175Z,8.48
2023-01-02T04:34:22.659Z,7.30
2023-01-02T04:36:50.333Z,9.05
2023-01-02T04:39:19.499Z,5.05
2023-01-02T04:41:47.093Z,7.57
2023-01-02T04:44:14.952Z,7.00
2023-01-02T04:46:42.497Z,7.72
2023-01-02T04:49:10.542Z,7.65
2023-01-02T04:51:39.464Z,7.88
2023-01-02T04:54:07.121Z,13.38
2023-01-02T04:56:34.769Z,7.13
2023-01-02T04:59:02.352Z,9.57
2023-01-02T05:01:30.028Z,11.23
2023-01-02T05:03:57.773Z,6.53
2023-01-02T05:06:25.343Z,7.30
2023-01-02T05:08:54.441Z,8.98
2023-01-02T05:11:22.303Z,7.95
2023-01-02T05:13:49.846Z,8.27
2023-01-02T05:16:17.484Z,5.60
2023-01-02T05:18:45.059Z,7.18
2023-01-02T05:21:28.639Z,8.70
2023-01-02T05:23:59.988Z,6.43
2023-01-02T05:26:27.721Z,7.40
2023-01-02T05:28:56.035Z,5.50
2023-01-02T05:31:23.710Z,8.50
2023-01-02T05:33:52.625Z,6.78
2023-01-02T05:36:20.521Z,5.50
2023-01-02T05:38:48.100Z,6.63
2023-01-02T05:41:17.570Z,6.65
2023-01-02T05:43:45.274Z,6.45
2023-01-02T05:46:16.009Z,9.82
2023-01-02T05:48:45.270Z,7.93
2023-01-02T05:51:14.635Z,8.38
2023-01-02T05:53:42.805Z,9.13
2023-01-02T05:56:13.038Z,8.32
2023-01-02T05:58:43.330Z,6.03
2023-01-02T06:01:12.582Z,9.98
2023-01-02T06:03:40.731Z,6.30
2023-01-02T06:06:10.536Z,6.75
2023-01-02T06:08:38.905Z,6.07
2023-01-02T06:11:07.331Z,6.78
2023-01-02T06:13:36.694Z,7.53
2023-01-02T06:16:07.801Z,10.65
2023-01-02T06:18:37.379Z,7.95
2023-01-02T06:21:08.366Z,8.90
2023-01-02T06:23:36.536Z,7.32
2023-01-02T06:26:05.755Z,10.05
2023-01-02T06:28:33.376Z,11.20
2023-01-02T06:31:02.151Z,12.38
2023-01-02T06:33:31.451Z,10.23
2023-01-02T06:36:00.316Z,9.55
2023-01-02T06:38:28.586Z,11.65
2023-01-02T06:40:57.218Z,12.43
2023-01-02T06:43:25.298Z,11.50
2023-01-02T06:45:53.331Z,11.05
2023-01-02T06:48:21.578Z,14.10
2023-01-02T06:50:50.473Z,10.75
2023-01-02T06:53:18.066Z,8.35
2023-01-02T06:55:52.267Z,8.88
2023-01-02T06:58:20.103Z,8.18
2023-01-02T07:00:47.843Z,6.55
2023-01-02T07:03:16.132Z,8.90
2023-01-02T07:05:44.478Z,7.68
2023-01-02T07:08:13.831Z,8.52
2023-01-02T07:10:41.346Z,8.38
2023-01-02T07:13:08.958Z,13.10
2023-01-02T07:15:36.520Z,9.90
2023-01-02T07:18:04.124Z,5.88
2023-01-02T07:20:31.706Z,8.25
2023-01-02T07:22:59.293Z,8.50
2023-01-02T07:25:28.186Z,8.60
2023-01-02T07:27:55.764Z,10.65
2023-01-02T07:30:23.307Z,7.65
2023-01-02T07:32:50.893Z,10.73
2023-01-02T07:35:18.673Z,9.77
2023-01-02T07:37:46.287Z,10.40
2023-01-02T07:40:13.898Z,9.27
2023-01-02T07:42:42.947Z,7.53
2023-01-02T07:45:11.171Z,10.30
2023-01-02T07:47:38.834Z,11.75
2023-01-02T07:50:07.301Z,10.48
2023-01-02T07:52:34.887Z,17.50
2023-01-02T07:55:02.407Z,9.20
2023-01-02T07:57:30.998Z,5.80
2023-01-02T07:59:59.929Z,24.40
2023-01-02T08:02:27.611Z,8.50
2023-01-02T08:04:55.390Z,14.27
2023-01-02T08:07:23.675Z,11.15
2023-01-02T08:09:51.239Z,12.18
2023-01-02T08:12:18.778Z,9.75
2023-01-02T08:14:46.311Z,8.80
2023-01-02T08:17:15.229Z,11.50
2023-01-02T08:19:42.840Z,11.15
2023-01-02T08:22:10.438Z,8.27
2023-01-02T08:24:38.107Z,8.50
2023-01-02T08:27:05.615Z,9.43
2023-01-02T08:29:33.924Z,9.52
2023-01-02T08:32:01.504Z,8.63
2023-01-02T08:34:30.400Z,6.68
2023-01-02T08:36:57.974Z,9.73
2023-01-02T08:39:25.513Z,7.85
2023-01-02T08:41:53.136Z,8.02
2023-01-02T08:44:20.886Z,9.18
2023-01-02T08:46:48.461Z,7.57
2023-01-02T08:49:16.203Z,6.57
2023-01-02T08:51:45.215Z,9.57
2023-01-02T08:54:12.766Z,8.63
2023-01-02T08:56:41.396Z,11.68
2023-01-02T08:59:11.885Z,9.48
2023-01-02T09:01:40.247Z,5.25
2023-01-02T09:04:12.547Z,8.35
2023-01-02T09:06:41.850Z,9.32
2023-01-02T09:09:12.984Z,9.45
2023-01-02T09:11:44.836Z,10.00
2023-01-02T09:14:12.519Z,10.43
2023-01-02T09:16:40.168Z,8.32
2023-01-02T09:19:07.905Z,10.15
2023-01-02T09:21:35.638Z,10.55
2023-01-02T09:24:04.112Z,9.43
2023-01-02T09:26:33.130Z,17.52
2023-01-02T09:29:00.664Z,9.73
2023-01-02T09:31:28.180Z,12.23
2023-01-02T09:33:55.905Z,20.10
2023-01-02T09:36:24.056Z,18.35
2023-01-02T09:38:52.761Z,13.55
2023-01-02T09:41:29.068Z,9.23
2023-01-02T09:44:00.713Z,11.10
2023-01-02T09:46:34.748Z,11.77
2023-01-02T09:49:02.905Z,15.10
2023-01-02T09:51:31.785Z,25.75
2023-01-02T09:54:00.277Z,12.30
2023-01-02T09:56:34.279Z,9.38
2023-01-02T09:59:13.666Z,13.10
2023-01-02T10:01:54.302Z,12.00
2023-01-02T10:04:33.263Z,12.13
2023-01-02T10:07:09.546Z,12.75
2023-01-02T10:09:49.707Z,10.98
2023-01-02T10:12:26.786Z,12.25
2023-01-02T10:14:59.026Z,5.80
2023-01-02T10:17:30.436Z,12.65
2023-01-02T10:20:02.750Z,12.43
2023-01-02T10:22:36.212Z,8.27
2023-01-02T10:25:11.211Z,9.40
2023-01-02T10:27:44.379Z,7.13
2023-01-02T10:30:20.541Z,10.43
2023-01-02T10:32:57.446Z,7.35
2023-01-02T10:35:37.448Z,9.10
2023-01-02T10:38:05.634Z,5.43
2023-01-02T10:40:34.738Z,5.50
2023-01-02T10:43:02.764Z,9.40
2023-01-02T10:45:31.993Z,5.55
2023-01-02T10:47:59.698Z,7.40
2023-01-02T10:50:31.853Z,6.00
2023-01-02T10:53:08.311Z,4.85
2023-01-02T10:55:39.399Z,6.53
2023-01-02T10:58:11.597Z,7.78
2023-01-02T11:00:40.677Z,13.00
2023-01-02T11:03:15.474Z,12.80
2023-01-02T11:05:48.529Z,4.85
2023-01-02T11:08:18.303Z,6.93
2023-01-02T11:10:46.332Z,8.00
2023-01-02T11:13:15.840Z,3.50
2023-01-02T11:15:50.326Z,5.07
2023-01-02T11:18:24.158Z,4.35
2023-01-02T11:20:54.370Z,5.05
2023-01-02T11:23:25.305Z,8.85
2023-01-02T11:25:54.914Z,8.55
2023-01-02T11:28:26.047Z,5.57
2023-01-02T11:31:01.349Z,3.22
2023-01-02T11:33:30.934Z,4.82
2023-01-02T11:36:07.862Z,2.17
2023-01-02T11:38:44.052Z,2.20
2023-01-02T11:41:57.385Z,1.65
2023-01-02T11:44:29.515Z,1.50
2023-01-02T11:47:00.197Z,2.83
2023-01-02T11:49:31.665Z,1.35
2023-01-02T11:52:03.222Z,0.70
2023-01-02T11:54:44.116Z,0.60
2023-01-02T11:57:30.144Z,0.85
2023-01-02T12:00:02.524Z,0.77
2023-01-02T12:02:37.192Z,0.73
2023-01-02T12:05:09.630Z,1.33
2023-01-02T12:07:44.340Z,1.13
2023-01-02T12:10:31.447Z,1.17
2023-01-02T12:13:18.638Z,0.93
2023-01-02T12:15:59.435Z,2.65
2023-01-02T12:18:39.114Z,2.45
2023-01-02T12:21:15.732Z,1.55
2023-01-02T12:24:04.269Z,3.25
2023-01-02T12:26:41.369Z,1.65
2023-01-02T12:29:47.382Z,1.70
2023-01-02T12:32:49.627Z,1.75
2023-01-02T12:35:29.035Z,2.17
2023-01-02T12:37:59.482Z,3.40
2023-01-02T12:40:53.128Z,1.45
2023-01-02T12:43:56.440Z,3.10
2023-01-02T12:46:41.944Z,2.13
2023-01-02T12:49:28.030Z,1.83
2023-01-02T12:52:05.857Z,2.53
2023-01-02T12:54:52.103Z,0.85
2023-01-02T12:57:27.841Z,0.85
2023-01-02T13:00:22.303Z,4.30
2023-01-02T13:03:09.490Z,10.77
2023-01-02T13:05:41.351Z,3.55
2023-01-02T13:08:19.841Z,1.40
2023-01-02T13:10:48.539Z,1.25
2023-01-02T13:13:16.953Z,1.23
2023-01-02T13:15:50.611Z,1.95
2023-01-02T13:18:23.565Z,1.83
2023-01-02T13:20:56.553Z,1.60
2023-01-02T13:23:33.490Z,1.48
2023-01-02T13:26:03.783Z,1.13
2023-01-02T13:28:31.407Z,1.00
2023-01-02T13:31:35.429Z,1.95
2023-01-02T13:33:52.515Z,1.35
2023-01-02T13:36:23.622Z,1.52
2023-01-02T13:38:55.714Z,1.67
2023-01-02T13:41:23.721Z,3.53
2023-01-02T13:43:55.754Z,1.08
2023-01-02T13:47:01.929Z,0.90
2023-01-02T13:49:20.562Z,1.27
2023-01-02T13:51:48.520Z,0.95
2023-01-02T13:54:20.790Z,1.45
2023-01-02T13:57:16.128Z,2.63
2023-01-02T13:59:52.280Z,2.55
2023-01-02T14:02:21.367Z,1.38
2023-01-02T14:04:49.218Z,1.77
2023-01-02T14:07:43.259Z,2.00
2023-01-02T14:10:26.034Z,0.90
2023-01-02T14:12:59.184Z,1.15
2023-01-02T14:15:28.340Z,2.03
2023-01-02T14:18:04.644Z,2.83
2023-01-02T14:20:34.780Z,2.42
2023-01-02T14:23:04.785Z,3.45
2023-01-02T14:25:46.428Z,1.45
2023-01-02T14:28:22.788Z,1.70
2023-01-02T14:30:51.104Z,1.15
2023-01-02T14:33:27.004Z,1.83
2023-01-02T14:35:57.725Z,2.00
2023-01-02T14:38:27.452Z,2.22
2023-01-02T14:41:18.243Z,2.45
2023-01-02T14:43:47.084Z,3.13
2023-01-02T14:46:18.605Z,2.83
2023-01-02T14:48:54.672Z,1.38
2023-01-02T14:51:27.598Z,2.25
2023-01-02T14:53:57.337Z,1.27
2023-01-02T14:56:30.773Z,3.00
2023-01-02T14:58:59.998Z,1.25
2023-01-02T15:01:42.509Z,2.75
2023-01-02T15:04:21.115Z,1.80
2023-01-02T15:06:52.644Z,3.28
2023-01-02T15:09:27.926Z,1.98
2023-01-02T15:12:32.969Z,2.30
2023-01-02T15:15:01.028Z,1.85
2023-01-02T15:17:28.678Z,3.13
2023-01-02T15:20:01.934Z,1.25
2023-01-02T15:22:31.239Z,2.63
2023-01-02T15:24:58.981Z,0.98
2023-01-02T15:27:29.320Z,1.92
2023-01-02T15:29:58.835Z,2.22
2023-01-02T15:32:28.464Z,3.17
2023-01-02T15:35:11.354Z,3.17
2023-01-02T15:37:43.048Z,1.80
2023-01-02T15:40:16.318Z,1.63
2023-01-02T15:43:03.987Z,2.45
2023-01-02T15:45:33.030Z,3.22
2023-01-02T15:48:01.042Z,1.30
2023-01-02T15:50:31.179Z,3.97
2023-01-02T15:53:01.686Z,6.00
2023-01-02T15:55:34.117Z,5.15
2023-01-02T15:58:20.969Z,7.80
2023-01-02T16:00:48.623Z,4.68
2023-01-02T16:04:04.049Z,7.13
2023-01-02T16:06:25.942Z,8.18
2023-01-02T16:08:55.894Z,8.70
2023-01-02T16:11:24.223Z,5.78
2023-01-02T16:14:14.261Z,4.20
2023-01-02T16:16:49.504Z,3.33
2023-01-02T16:19:23.054Z,8.75
2023-01-02T16:22:02.712Z,4.00
2023-01-02T16:24:30.368Z,5.05
2023-01-02T16:26:59.027Z,5.97
2023-01-02T16:29:28.012Z,2.85
2023-01-02T16:31:58.349Z,4.75
2023-01-02T16:34:29.839Z,3.65
2023-01-02T16:37:29.594Z,7.93
2023-01-02T16:39:57.500Z,4.32
2023-01-02T16:42:36.224Z,9.48
2023-01-02T16:45:07.029Z,9.32
2023-01-02T16:47:40.500Z,10.32
2023-01-02T16:50:15.703Z,6.57
2023-01-02T16:52:43.779Z,4.65
2023-01-02T16:55:15.454Z,6.82
2023-01-02T16:57:43.053Z,8.00
2023-01-02T17:00:13.809Z,5.18
2023-01-02T17:02:41.908Z,7.65
2023-01-02T17:05:21.125Z,4.57
2023-01-02T17:07:48.962Z,6.22
2023-01-02T17:10:16.830Z,10.90
2023-01-02T17:12:45.014Z,9.20
2023-01-02T17:15:15.538Z,9.75
2023-01-02T17:17:43.361Z,12.38
2023-01-02T17:20:12.762Z,12.52
2023-01-02T17:22:40.841Z,8.35
2023-01-02T17:25:10.438Z,7.13
2023-01-02T17:27:38.135Z,6.25
2023-01-02T17:30:06.446Z,7.43
2023-01-02T17:32:35.553Z,4.35
2023-01-02T17:35:03.111Z,4.75
2023-01-02T17:37:31.169Z,10.75
2023-01-02T17:39:59.454Z,6.95
2023-01-02T17:42:27.092Z,12.50
2023-01-02T17:44:54.637Z,7.93
2023-01-02T17:47:58.316Z,6.15
2023-01-02T17:50:11.717Z,6.68
2023-01-02T17:52:39.680Z,10.05
2023-01-02T17:55:07.625Z,7.85
2023-01-02T17:57:36.225Z,9.57
2023-01-02T18:00:05.676Z,12.10
2023-01-02T18:02:40.333Z,10.35
2023-01-02T18:05:09.209Z,7.95
2023-01-02T18:07:38.217Z,8.07
2023-01-02T18:10:09.210Z,9.13
2023-01-02T18:12:37.820Z,9.32
2023-01-02T18:15:11.984Z,9.32
2023-01-02T18:17:39.534Z,5.47
2023-01-02T18:20:10.804Z,9.13
2023-01-02T18:22:46.169Z,7.32
2023-01-02T18:25:20.090Z,6.25
2023-01-02T18:27:48.655Z,10.70
2023-01-02T18:30:19.592Z,15.20
2023-01-02T18:32:47.982Z,10.88
2023-01-02T18:38:18.803Z,7.07
2023-01-02T18:40:47.087Z,6.72
2023-01-02T18:43:22.339Z,7.95
2023-01-02T18:45:54.386Z,8.77
2023-01-02T18:48:23.345Z,11.77
2023-01-02T18:50:57.972Z,13.90
2023-01-02T18:53:30.585Z,11.68
2023-01-02T18:56:02.082Z,8.20
2023-01-02T18:58:43.236Z,9.05
2023-01-02T19:01:22.256Z,10.30
2023-01-02T19:03:49.990Z,8.70
2023-01-02T19:06:19.291Z,14.32
2023-01-02T19:08:48.205Z,11.15
2023-01-02T19:11:37.264Z,7.75
2023-01-02T19:14:12.998Z,7.05
2023-01-02T19:16:41.565Z,10.60
2023-01-02T19:19:15.423Z,10.57
2023-01-02T19:21:43.505Z,6.88
2023-01-02T19:24:19.237Z,10.65
2023-01-02T19:26:48.630Z,5.57
2023-01-02T19:29:20.261Z,7.72
2023-01-02T19:31:52.294Z,8.57
2023-01-02T19:34:27.002Z,9.50
2023-01-02T19:36:59.442Z,7.88
2023-01-02T19:39:33.082Z,9.05
2023-01-02T19:42:18.435Z,7.93
2023-01-02T19:44:47.305Z,10.77
2023-01-02T19:47:15.066Z,15.27
2023-01-02T19:49:43.165Z,12.30
2023-01-02T19:52:12.127Z,8.80
2023-01-02T19:54:41.482Z,14.68
2023-01-02T19:57:10.375Z,11.45
2023-01-02T19:59:43.502Z,11.68
2023-01-02T20:02:12.534Z,14.60
2023-01-02T20:04:40.781Z,10.82
2023-01-02T20:07:09.126Z,9.68
2023-01-02T20:09:37.225Z,8.07
2023-01-02T20:12:23.900Z,12.10
2023-01-02T20:14:52.227Z,12.02
2023-01-02T20:17:19.917Z,12.90
2023-01-02T20:19:47.607Z,11.98
2023-01-02T20:22:15.187Z,15.15
2023-01-02T20:24:42.993Z,14.48
2023-01-02T20:27:14.006Z,15.52
2023-01-02T20:29:41.812Z,14.32
2023-01-02T20:32:09.747Z,14.43
2023-01-02T20:34:37.263Z,8.40
2023-01-02T20:37:04.867Z,12.45
2023-01-02T20:39:32.460Z,7.72
2023-01-02T20:42:00.184Z,7.07
2023-01-02T20:44:29.134Z,6.85
2023-01-02T20:46:56.816Z,9.23
2023-01-02T20:49:26.103Z,11.38
2023-01-02T20:51:55.727Z,9.52
2023-01-02T20:54:23.470Z,8.50
2023-01-02T20:56:51.059Z,5.00
2023-01-02T20:59:18.791Z,6.15
2023-01-02T21:01:48.141Z,8.23
2023-01-02T21:04:20.659Z,8.02
2023-01-02T21:06:55.705Z,6.88
2023-01-02T21:09:23.447Z,9.90
2023-01-02T21:11:50.991Z,8.50
2023-01-02T21:14:18.550Z,7.07
2023-01-02T21:16:47.539Z,7.97
2023-01-02T21:19:15.252Z,11.00
2023-01-02T21:21:42.862Z,8.98
2023-01-02T21:24:10.440Z,12.40
2023-01-02T21:26:38.005Z,8.77
2023-01-02T21:29:06.028Z,9.82
2023-01-02T21:31:34.849Z,9.48
2023-01-02T21:34:03.797Z,10.40
2023-01-02T21:36:32.842Z,5.88
2023-01-02T21:39:00.568Z,7.63
2023-01-02T21:41:45.598Z,12.18
2023-01-02T21:44:13.262Z,7.50
2023-01-02T21:46:40.846Z,6.47
2023-01-02T21:49:09.984Z,9.60
2023-01-02T21:51:37.842Z,8.05
2023-01-02T21:54:05.455Z,8.40
2023-01-02T21:56:33.185Z,5.18
2023-01-02T21:59:00.844Z,11.68
2023-01-02T22:01:28.531Z,6.13
2023-01-02T22:03:57.268Z,7.38
2023-01-02T22:06:33.723Z,9.85
2023-01-02T22:09:01.363Z,9.80
2023-01-02T22:11:46.860Z,9.75
2023-01-02T22:14:14.545Z,8.20
2023-01-02T22:16:42.159Z,11.43
2023-01-02T22:19:09.727Z,7.03
2023-01-02T22:21:38.801Z,10.07
2023-01-02T22:24:07.239Z,5.95
2023-01-02T22:26:36.078Z,10.50
2023-01-02T22:29:03.752Z,9.00
2023-01-02T22:31:31.612Z,6.53
2023-01-02T22:33:59.954Z,12.10
2023-01-02T22:36:31.258Z,13.73
2023-01-02T22:39:27.088Z,10.13
2023-01-02T22:42:48.963Z,8.32
2023-01-02T22:45:00.757Z,7.03
2023-01-02T22:47:31.599Z,10.43
2023-01-02T22:49:59.737Z,10.35
2023-01-02T22:52:28.065Z,4.57
2023-01-02T22:54:56.927Z,11.18
2023-01-02T22:57:24.503Z,6.45
2023-01-02T22:59:51.992Z,9.63
2023-01-02T23:02:21.896Z,9.98
2023-01-02T23:04:50.938Z,7.28
2023-01-02T23:07:24.396Z,9.45
2023-01-02T23:09:52.347Z,8.02
2023-01-02T23:12:21.239Z,6.22
2023-01-02T23:14:48.964Z,7.80
2023-01-02T23:17:34.078Z,6.95
2023-01-02T23:20:01.784Z,7.93
2023-01-02T23:22:29.641Z,6.05
2023-01-02T23:24:57.180Z,8.07
2023-01-02T23:27:26.141Z,10.00
2023-01-02T23:29:53.680Z,8.63
2023-01-02T23:32:21.479Z,6.28
2023-01-02T23:34:49.115Z,6.78
2023-01-02T23:37:16.785Z,7.07
2023-01-02T23:39:44.352Z,7.88
2023-01-02T23:42:11.985Z,5.72
2023-01-02T23:44:41.555Z,7.45
2023-01-02T23:47:13.391Z,6.38
2023-01-02T23:49:43.362Z,5.25
2023-01-02T23:52:11.150Z,5.57
2023-01-02T23:54:39.750Z,8.43
2023-01-02T23:57:07.301Z,7.55
2023-01-02T23:59:34.994Z,6.78
